KBRL/BRL METAR and TAF weather

Enter ICAO airport designator
Station Type Date Time Source
KBRL METAR 2021/08/04 18:53 UTC NOAA

KBRL 041853Z AUTO 16005KT 10SM BKN046 26/16 A3014 RMK AO2 SLP202 T02560156


Station Type Date Time Source
KBRL Decoded METAR 2021/08/04 18:53 UTC NOAA

BURLINGTON REGIONAL AIRPORT, IA, United States (KBRL) 40-46N 91-08W 211M
Aug 04, 2021 - 02:53 PM EDT / 2021.08.04 1853 UTC
Wind: from the SSE (160 degrees) at 6 MPH (5 KT):0
Visibility: 10 mile(s):0
Sky conditions: mostly cloudy
Temperature: 78.1 F (25.6 C)
Dew Point: 60.1 F (15.6 C)
Relative Humidity: 53%
Pressure (altimeter): 30.14 in. Hg (1020 hPa)
ob: KBRL 041853Z AUTO 16005KT 10SM BKN046 26/16 A3014 RMK AO2 SLP202 T02560156
cycle: 19

Station Type Date Time Source
KBRL TAF 2021/08/04 18:42 UTC NOAA

TAF KBRL 041740Z 0418/0518 VRB04KT P6SM SCT050
FM051700 18007KT P6SM OVC100

Example: see airport list